sim
Sign-in with your pilot id or email,
or register
Callsign
Passwort

Schedule Details

Flight Number: OEO6727
Departure: Denver International Airport (KDEN) at 18:20
Arrival: Munich Airport (EDDM) at 04:30

Weather Information
Getting current METAR information for KDEN 201553Z 03007KT 10SM BKN120 BKN200 21/05 A3015 RMK AO2 SLP132 T02110050
Getting current METAR information for EDDM 201620Z 04004KT CAVOK 21/11 Q1015 NOSIG

Schedule Frequency

Route Map